Time;durP1;ratioP1;P1;durP2;ratioP2;P2;SDS_P1;SDS_P2;PMS_P1;PMS_P2;Temp;Humidity;BMP_temperature;BMP_pressure;BME280_temperature;BME280_humidity;BME280_pressure;Samples;Min_cycle;Max_cycle;Signal;HPM_P1;HPM_P2
2021/12/03 00:00:48;;;;;;;36.70;20.88;;;;;;;-1.04;100.00;101001.38;5072530;28;20054;-51
2021/12/03 00:03:13;;;;;;;46.67;26.70;;;;;;;-1.07;100.00;101002.03;5076644;28;20406;-51
2021/12/03 00:05:39;;;;;;;53.15;30.08;;;;;;;-1.04;100.00;100999.72;5075815;28;20036;-52
2021/12/03 00:08:05;;;;;;;41.97;30.08;;;;;;;-1.02;100.00;100994.78;5076759;28;20097;-52
2021/12/03 00:10:31;;;;;;;46.78;31.38;;;;;;;-1.04;100.00;101002.25;5076359;28;20067;-52
2021/12/03 00:12:58;;;;;;;48.60;32.63;;;;;;;-1.01;100.00;100997.44;5076007;28;20052;-52
2021/12/03 00:15:26;;;;;;;38.20;21.27;;;;;;;-0.98;100.00;100995.91;5076559;28;20100;-51
2021/12/03 00:17:52;;;;;;;42.72;24.00;;;;;;;-0.98;100.00;100996.81;5076515;28;20048;-51
2021/12/03 00:20:19;;;;;;;48.80;31.45;;;;;;;-1.01;100.00;100999.97;5075818;28;20464;-52
2021/12/03 00:22:47;;;;;;;46.45;32.45;;;;;;;-1.04;100.00;100998.84;5076310;28;20028;-52
2021/12/03 00:25:12;;;;;;;53.75;35.50;;;;;;;-1.01;100.00;101002.50;5076217;28;20048;-52
2021/12/03 00:27:38;;;;;;;52.90;34.53;;;;;;;-1.02;100.00;101010.88;5075604;28;20548;-51
2021/12/03 00:30:07;;;;;;;48.72;35.30;;;;;;;-1.05;100.00;101004.66;5076326;28;20039;-51
2021/12/03 00:32:32;;;;;;;54.08;35.72;;;;;;;-1.05;100.00;101007.19;5076132;28;20103;-49
2021/12/03 00:34:58;;;;;;;54.33;35.70;;;;;;;-1.07;100.00;101002.03;5075321;28;20100;-52
2021/12/03 00:37:23;;;;;;;53.00;37.17;;;;;;;-1.05;100.00;101010.59;5076122;28;20424;-52
2021/12/03 00:39:49;;;;;;;44.15;24.20;;;;;;;-1.02;100.00;101008.34;5076284;28;20086;-51
2021/12/03 00:42:17;;;;;;;53.10;35.50;;;;;;;-1.08;100.00;101001.91;5075496;28;20025;-52
2021/12/03 00:44:44;;;;;;;51.42;36.38;;;;;;;-1.07;100.00;101011.25;5076001;28;20025;-51
2021/12/03 00:47:11;;;;;;;;;;;;;;;-1.02;100.00;101009.97;5075894;28;20063;-52
2021/12/03 00:49:36;;;;;;;47.78;25.05;;;;;;;-1.05;100.00;101008.06;5075668;28;19919;-52
2021/12/03 00:52:01;;;;;;;55.50;35.25;;;;;;;-1.11;100.00;101007.63;5075823;28;20028;-52
2021/12/03 00:54:27;;;;;;;58.55;36.83;;;;;;;-1.14;100.00;101004.81;5075044;28;20032;-52
2021/12/03 00:56:52;;;;;;;44.22;26.42;;;;;;;-1.09;100.00;100998.47;5075849;28;20269;-51
2021/12/03 00:59:17;;;;;;;51.55;36.65;;;;;;;-1.13;100.00;101005.72;5075825;28;20025;-51
2021/12/03 01:01:43;;;;;;;60.40;38.47;;;;;;;-1.13;100.00;101008.25;5074653;28;20036;-52
2021/12/03 01:04:08;;;;;;;58.03;37.97;;;;;;;-1.14;100.00;101012.41;5075637;28;20029;-52
2021/12/03 01:06:33;;;;;;;55.38;28.42;;;;;;;-1.10;100.00;101014.41;5075284;28;20020;-51
2021/12/03 01:08:58;;;;;;;60.28;39.60;;;;;;;-1.14;100.00;101004.81;5075064;28;20056;-52
2021/12/03 01:11:24;;;;;;;58.78;41.58;;;;;;;-1.13;100.00;101013.31;5075474;28;20040;-52
2021/12/03 01:13:50;;;;;;;52.83;28.83;;;;;;;-1.08;100.00;101020.50;5075162;28;20021;-50
2021/12/03 01:16:17;;;;;;;66.78;43.10;;;;;;;-1.14;100.00;101012.41;5074584;28;20490;-52
2021/12/03 01:18:45;;;;;;;66.15;42.38;;;;;;;-1.16;100.00;101021.53;5075235;28;20028;-52
2021/12/03 01:21:11;;;;;;;63.30;42.33;;;;;;;-1.17;100.00;101025.69;5075255;28;20028;-53
2021/12/03 01:23:37;;;;;;;58.00;29.52;;;;;;;-1.12;100.00;101028.59;5073930;28;20045;-52
2021/12/03 01:26:04;;;;;;;60.55;29.50;;;;;;;-1.12;100.00;101027.69;5075356;28;20079;-52
2021/12/03 01:28:29;;;;;;;69.15;44.97;;;;;;;-1.16;100.00;101026.59;5075099;28;20249;-52
2021/12/03 01:30:57;;;;;;;69.93;47.53;;;;;;;-1.20;100.00;101028.00;5074160;28;20052;-50
2021/12/03 01:33:23;;;;;;;78.93;49.80;;;;;;;-1.19;100.00;101031.41;5075149;28;20552;-52
2021/12/03 01:35:48;;;;;;;67.28;32.15;;;;;;;-1.14;100.00;101029.25;5074847;28;20052;-53
2021/12/03 01:38:14;;;;;;;68.38;32.58;;;;;;;-1.15;100.00;101028.34;5074526;28;20024;-52
2021/12/03 01:40:40;;;;;;;79.90;50.47;;;;;;;-1.17;100.00;101027.34;5074932;28;20499;-53
2021/12/03 01:43:08;;;;;;;72.82;35.75;;;;;;;-1.14;100.00;101026.72;5074946;28;20369;-53
2021/12/03 01:45:36;;;;;;;74.78;36.92;;;;;;;-1.13;100.00;101021.78;5073957;28;20023;-53
2021/12/03 01:48:03;;;;;;;84.82;53.60;;;;;;;-1.18;100.00;101013.81;5074842;28;20111;-52
2021/12/03 01:50:36;;;;;;;83.32;55.22;;;;;;;-1.20;100.00;101017.88;5073773;28;20536;-51
2021/12/03 01:53:03;;;;;;;88.35;59.03;;;;;;;-1.19;100.00;101016.22;5074841;28;20443;-52
2021/12/03 01:55:28;;;;;;;68.20;35.83;;;;;;;-1.16;100.00;101006.38;5074717;28;20027;-52
2021/12/03 01:57:54;;;;;;;84.43;56.28;;;;;;;-1.22;100.00;100999.16;5073913;28;20020;-52
2021/12/03 02:00:28;;;;;;;88.13;61.25;;;;;;;-1.19;100.00;101001.03;5074790;28;20491;-53
2021/12/03 02:02:54;;;;;;;91.20;60.03;;;;;;;-1.19;100.00;101006.09;5074428;28;20033;-51
2021/12/03 02:05:20;;;;;;;70.47;37.53;;;;;;;-1.13;100.00;101019.25;5074070;28;20017;-53
2021/12/03 02:07:46;;;;;;;101.82;60.65;;;;;;;-1.12;100.00;101013.44;5074495;28;20028;-52
2021/12/03 02:10:13;;;;;;;97.90;64.00;;;;;;;-1.10;100.00;101016.94;5074417;28;20032;-52
2021/12/03 02:12:39;;;;;;;83.43;41.17;;;;;;;-1.06;100.00;101010.47;5073545;28;20027;-52
2021/12/03 02:15:05;;;;;;;97.45;62.22;;;;;;;-1.07;100.00;101017.19;5074299;28;20100;-53
2021/12/03 02:17:31;;;;;;;111.00;65.28;;;;;;;-1.06;100.00;101018.97;5073975;28;20029;-50
2021/12/03 02:19:57;;;;;;;119.47;69.20;;;;;;;-1.05;100.00;101024.91;5073727;28;20017;-53
2021/12/03 02:22:22;;;;;;;105.00;47.47;;;;;;;-1.00;100.00;101023.63;5074315;28;20025;-52
2021/12/03 02:24:48;;;;;;;119.65;52.47;;;;;;;-0.98;100.00;101028.81;5073236;28;20078;-52
2021/12/03 02:27:13;;;;;;;150.88;77.65;;;;;;;-1.00;100.00;101027.03;5073477;28;20119;-52
2021/12/03 02:29:38;;;;;;;175.23;82.53;;;;;;;-0.98;100.00;101016.16;5073624;28;20120;-53
2021/12/03 02:32:04;;;;;;;198.52;90.38;;;;;;;-0.97;100.00;101010.34;5073844;28;20078;-52
2021/12/03 02:34:30;;;;;;;208.20;96.05;;;;;;;-0.96;100.00;101012.09;5073368;28;20031;-53
2021/12/03 02:36:56;;;;;;;225.05;97.75;;;;;;;-0.96;100.00;101000.31;5074140;28;20016;-51
2021/12/03 02:39:21;;;;;;;235.27;95.18;;;;;;;-0.95;100.00;101006.28;5074235;28;20498;-52
2021/12/03 02:41:47;;;;;;;178.10;57.55;;;;;;;-0.90;100.00;101010.06;5072871;28;20028;-52
2021/12/03 02:44:12;;;;;;;264.15;97.10;;;;;;;-0.90;100.00;101007.53;5073826;28;20024;-52
2021/12/03 02:46:37;;;;;;;264.17;95.72;;;;;;;-0.89;100.00;100996.63;5073704;28;20531;-52
2021/12/03 02:49:03;;;;;;;290.70;102.70;;;;;;;-0.87;100.00;101010.28;5072976;28;20547;-53
2021/12/03 02:51:28;;;;;;;283.58;103.07;;;;;;;-0.85;100.00;101007.13;5073838;28;20028;-52
2021/12/03 02:53:53;;;;;;;298.88;101.05;;;;;;;-0.82;100.00;101001.41;5073032;28;20021;-53
2021/12/03 02:56:19;;;;;;;308.52;104.47;;;;;;;-0.80;100.00;101007.47;5073917;28;20024;-52
2021/12/03 02:58:44;;;;;;;306.85;100.82;;;;;;;-0.78;100.00;101016.06;5073251;28;20051;-53
2021/12/03 03:01:10;;;;;;;298.15;103.53;;;;;;;-0.75;100.00;101015.41;5072623;28;20029;-53
2021/12/03 03:03:36;;;;;;;298.70;106.63;;;;;;;-0.73;100.00;101004.66;5073286;28;20033;-53
2021/12/03 03:06:04;;;;;;;296.35;107.22;;;;;;;-0.73;100.00;100999.59;5073530;28;20143;-52
2021/12/03 03:08:29;;;;;;;;;;;;;;;-0.64;100.00;101006.13;5072957;28;20024;-53
2021/12/03 03:10:56;;;;;;;280.00;105.35;;;;;;;-0.67;100.00;101000.06;5072865;28;19913;-52
2021/12/03 03:13:22;;;;;;;204.15;63.17;;;;;;;-0.63;100.00;101001.19;5073271;28;20103;-53
2021/12/03 03:15:48;;;;;;;249.18;98.80;;;;;;;-0.65;100.00;100985.00;5072142;28;20048;-52
2021/12/03 03:18:23;;;;;;;202.02;57.50;;;;;;;-0.58;100.00;100983.81;5073487;28;20519;-53
2021/12/03 03:20:50;;;;;;;242.43;94.82;;;;;;;-0.59;100.00;100987.13;5073274;28;20050;-53
2021/12/03 03:23:18;;;;;;;231.48;94.85;;;;;;;-0.58;100.00;100993.94;5072383;28;20407;-53
2021/12/03 03:25:44;;;;;;;227.75;95.07;;;;;;;-0.58;100.00;100978.75;5073056;28;20029;-52
2021/12/03 03:28:11;;;;;;;222.20;91.22;;;;;;;-0.56;100.00;100994.94;5073228;28;20052;-53
2021/12/03 03:30:38;;;;;;;188.63;60.10;;;;;;;-0.52;100.00;100984.28;5072112;28;20115;-53
2021/12/03 03:33:04;;;;;;;214.27;89.72;;;;;;;-0.54;100.00;100983.31;5073368;28;20028;-54
2021/12/03 03:35:29;;;;;;;202.27;87.93;;;;;;;-0.52;100.00;100999.47;5072537;28;20024;-53
2021/12/03 03:37:55;;;;;;;219.13;88.47;;;;;;;-0.51;100.00;101006.31;5072025;28;20026;-53
2021/12/03 03:40:21;;;;;;;206.60;85.80;;;;;;;-0.51;100.00;100996.19;5073170;28;20028;-53
2021/12/03 03:42:46;;;;;;;201.75;87.88;;;;;;;-0.49;100.00;101002.25;5072719;28;20480;-53
2021/12/03 03:45:15;;;;;;;199.43;88.88;;;;;;;-0.50;100.00;101003.88;5072165;28;20046;-53
2021/12/03 03:47:41;;;;;;;190.00;86.78;;;;;;;-0.47;100.00;100989.72;5072834;28;20376;-53
2021/12/03 03:50:08;;;;;;;202.35;90.40;;;;;;;-0.49;100.00;100999.72;5072390;28;20021;-53
2021/12/03 03:52:36;;;;;;;213.70;91.15;;;;;;;-0.47;100.00;100994.78;5072810;28;20056;-53
2021/12/03 03:55:02;;;;;;;203.18;88.90;;;;;;;-0.48;100.00;100987.94;5073111;28;20029;-53
2021/12/03 03:57:28;;;;;;;206.63;87.43;;;;;;;-0.46;100.00;100988.94;5071920;28;20116;-53
2021/12/03 03:59:54;;;;;;;212.13;89.78;;;;;;;-0.47;100.00;100980.44;5073021;28;20068;-53
2021/12/03 04:02:19;;;;;;;209.32;87.10;;;;;;;-0.48;100.00;100976.16;5072899;28;20100;-53
2021/12/03 04:04:44;;;;;;;206.50;87.50;;;;;;;-0.46;100.00;100969.56;5071935;28;20070;-54
2021/12/03 04:07:10;;;;;;;206.35;86.45;;;;;;;-0.44;100.00;100973.09;5072772;28;20025;-54
2021/12/03 04:09:35;;;;;;;213.88;87.70;;;;;;;-0.44;100.00;100970.56;5072333;28;20025;-53
2021/12/03 04:12:00;;;;;;;209.07;88.88;;;;;;;-0.43;100.00;100964.72;5071780;28;20070;-54
2021/12/03 04:14:26;;;;;;;230.18;90.82;;;;;;;-0.42;100.00;100969.03;5072380;28;20043;-53
2021/12/03 04:16:51;;;;;;;227.25;91.82;;;;;;;-0.40;100.00;100959.91;5072750;28;20023;-54
2021/12/03 04:19:18;;;;;;;221.68;90.72;;;;;;;-0.38;100.00;100958.34;5071969;28;20029;-53
2021/12/03 04:21:44;;;;;;;228.68;91.03;;;;;;;-0.37;100.00;100965.19;5072449;28;20040;-53
2021/12/03 04:24:09;;;;;;;227.85;87.78;;;;;;;-0.34;100.00;100965.44;5072417;28;20072;-54
2021/12/03 04:26:35;;;;;;;227.45;88.00;;;;;;;-0.30;100.00;100965.66;5071517;28;20059;-53
2021/12/03 04:29:00;;;;;;;215.52;85.95;;;;;;;-0.29;100.00;100962.34;5072839;28;20498;-53
2021/12/03 04:31:25;;;;;;;212.77;83.13;;;;;;;-0.27;100.00;100960.81;5072045;28;20049;-54
2021/12/03 04:33:52;;;;;;;208.50;82.15;;;;;;;-0.25;100.00;100954.22;5071828;28;20039;-53
2021/12/03 04:36:17;;;;;;;206.55;83.97;;;;;;;-0.25;100.00;100961.81;5072560;28;20024;-53
2021/12/03 04:38:43;;;;;;;194.88;80.30;;;;;;;-0.23;100.00;100958.63;5072335;28;20055;-53
2021/12/03 04:41:08;;;;;;;191.55;80.22;;;;;;;-0.21;100.00;100966.34;5071776;28;20029;-54
2021/12/03 04:43:34;;;;;;;181.68;80.03;;;;;;;-0.20;100.00;100976.56;5072445;28;20028;-55
2021/12/03 04:45:59;;;;;;;190.52;79.22;;;;;;;-0.19;100.00;100975.81;5072689;28;20025;-52
2021/12/03 04:48:24;;;;;;;181.32;79.57;;;;;;;-0.16;100.00;100975.16;5074127;28;20021;-54
2021/12/03 04:50:50;;;;;;;172.32;78.38;;;;;;;-0.14;100.00;100965.13;5075996;28;20057;-54
2021/12/03 04:53:16;;;;;;;188.27;81.20;;;;;;;-0.15;100.00;100964.25;5075974;28;20120;-54
2021/12/03 04:55:42;;;;;;;168.88;74.63;;;;;;;-0.14;100.00;100968.56;5074908;28;20104;-53
2021/12/03 04:58:07;;;;;;;167.35;76.55;;;;;;;-0.12;100.00;100974.63;5076223;28;20036;-53
2021/12/03 05:00:37;;;;;;;164.98;78.30;;;;;;;-0.11;100.00;100962.84;5075164;28;20380;-53
2021/12/03 05:03:03;;;;;;;159.93;75.93;;;;;;;-0.09;100.00;100959.66;5075764;28;20029;-52
2021/12/03 05:05:33;;;;;;;158.43;76.70;;;;;;;-0.08;100.00;100947.88;5075554;28;20050;-53
2021/12/03 05:08:10;;;;;;;153.05;74.35;;;;;;;-0.10;100.00;100951.94;5075276;28;20044;-53
2021/12/03 05:10:39;;;;;;;151.48;75.43;;;;;;;-0.08;100.00;100943.69;5075361;28;20116;-53
2021/12/03 05:13:14;;;;;;;145.10;69.25;;;;;;;-0.07;100.00;100947.97;5075760;28;20024;-53
2021/12/03 05:15:41;;;;;;;144.52;70.78;;;;;;;-0.09;100.00;100933.44;5074661;28;20130;-53
2021/12/03 05:18:09;;;;;;;137.07;72.88;;;;;;;-0.09;100.00;100931.78;5075541;28;20070;-53
2021/12/03 05:20:35;;;;;;;;;;;;;;;-0.02;100.00;100934.00;5075693;28;20025;-54
2021/12/03 05:23:00;;;;;;;127.35;65.82;;;;;;;-0.07;100.00;100925.16;5074997;28;19919;-55
2021/12/03 05:25:27;;;;;;;119.35;62.17;;;;;;;-0.08;100.00;100928.50;5075174;28;20032;-53
2021/12/03 05:27:53;;;;;;;113.40;62.63;;;;;;;-0.08;100.00;100938.63;5075344;28;20023;-53
2021/12/03 05:30:19;;;;;;;121.07;60.13;;;;;;;-0.07;100.00;100934.44;5074544;28;20047;-53
2021/12/03 05:32:44;;;;;;;107.43;58.13;;;;;;;-0.08;100.00;100923.44;5075073;28;20388;-53
2021/12/03 05:35:10;;;;;;;99.47;55.63;;;;;;;-0.10;100.00;100929.16;5075276;28;20094;-53
2021/12/03 05:37:37;;;;;;;86.85;50.83;;;;;;;-0.10;100.00;100940.16;5073932;28;20025;-53
2021/12/03 05:40:05;;;;;;;98.85;49.67;;;;;;;-0.08;100.00;100933.56;5075540;28;20044;-53
2021/12/03 05:42:30;;;;;;;;;;;;;;;0.01;100.00;100942.59;5075410;28;20502;-53
2021/12/03 05:44:55;;;;;;;83.97;47.72;;;;;;;-0.08;100.00;100946.22;5074318;28;19912;-53
2021/12/03 05:47:21;;;;;;;79.47;45.85;;;;;;;-0.06;100.00;100946.34;5075302;28;20024;-53
2021/12/03 05:49:47;;;;;;;77.35;44.50;;;;;;;-0.08;100.00;100943.69;5074067;28;20086;-53
2021/12/03 05:52:12;;;;;;;71.50;42.35;;;;;;;-0.09;100.00;100947.00;5075072;28;20052;-53
2021/12/03 05:54:37;;;;;;;68.78;40.15;;;;;;;-0.07;100.00;100935.31;5074745;28;20021;-53
2021/12/03 05:57:03;;;;;;;65.22;38.08;;;;;;;-0.06;100.00;100936.19;5074376;28;20029;-53
2021/12/03 05:59:28;;;;;;;64.13;37.13;;;;;;;-0.07;100.00;100945.44;5073833;28;20031;-53
2021/12/03 06:01:53;;;;;;;62.05;37.53;;;;;;;-0.07;100.00;100950.50;5074708;28;20025;-53
2021/12/03 06:04:19;;;;;;;62.85;35.60;;;;;;;-0.05;100.00;100945.56;5073809;28;20032;-53
2021/12/03 06:06:44;;;;;;;58.13;34.75;;;;;;;-0.07;100.00;100945.44;5074236;28;20123;-53
2021/12/03 06:09:09;;;;;;;56.60;33.83;;;;;;;-0.06;100.00;100942.13;5074780;28;20024;-53
2021/12/03 06:11:35;;;;;;;60.67;32.92;;;;;;;-0.05;100.00;100946.44;5073352;28;20020;-53
2021/12/03 06:14:00;;;;;;;53.60;31.48;;;;;;;-0.04;100.00;100937.19;5074632;28;20144;-53
2021/12/03 06:16:25;;;;;;;54.92;29.88;;;;;;;-0.02;100.00;100934.00;5074281;28;20025;-53
2021/12/03 06:18:51;;;;;;;55.30;28.60;;;;;;;0.02;100.00;100934.22;5073495;28;20025;-53
2021/12/03 06:21:16;;;;;;;49.35;27.67;;;;;;;0.02;100.00;100929.16;5074412;28;20036;-53
2021/12/03 06:23:41;;;;;;;45.40;26.73;;;;;;;0.04;100.00;100925.06;5073937;28;20051;-54
2021/12/03 06:26:08;;;;;;;43.85;25.73;;;;;;;0.05;100.00;100926.84;5073609;28;20025;-52
2021/12/03 06:28:34;;;;;;;49.53;26.92;;;;;;;0.04;100.00;100927.59;5074284;28;20557;-53
2021/12/03 06:31:00;;;;;;;53.63;24.60;;;;;;;0.06;100.00;100923.53;5074325;28;20032;-54
2021/12/03 06:33:25;;;;;;;45.17;23.42;;;;;;;0.08;100.00;100924.53;5073525;28;20058;-55
2021/12/03 06:35:52;;;;;;;45.70;22.40;;;;;;;0.07;100.00;100921.13;5074023;28;20029;-53
2021/12/03 06:38:17;;;;;;;42.22;21.83;;;;;;;0.08;100.00;100911.84;5074162;28;20094;-53
2021/12/03 06:40:45;;;;;;;43.63;21.67;;;;;;;0.07;100.00;100917.72;5073161;28;20422;-54
2021/12/03 06:43:11;;;;;;;40.78;20.38;;;;;;;0.06;100.00;100931.16;5073851;28;20498;-53
2021/12/03 06:45:37;;;;;;;36.85;19.98;;;;;;;0.07;100.00;100927.84;5073721;28;20047;-53
2021/12/03 06:48:02;;;;;;;48.58;20.58;;;;;;;0.08;100.00;100919.44;5073020;28;20464;-53
2021/12/03 06:50:29;;;;;;;37.45;19.67;;;;;;;0.06;100.00;100921.00;5073436;28;20025;-54
2021/12/03 06:55:27;;;;;;;37.55;19.00;;;;;;;0.03;100.00;100928.38;5073868;28;20024;-53
2021/12/03 06:57:53;;;;;;;38.03;19.35;;;;;;;0.04;100.00;100932.69;5073371;28;20373;-54
2021/12/03 07:00:18;;;;;;;36.55;18.33;;;;;;;0.03;100.00;100930.91;5072843;28;20076;-53
2021/12/03 07:02:44;;;;;;;43.75;17.77;;;;;;;0.01;100.00;100929.94;5073136;28;20036;-53
2021/12/03 07:05:10;;;;;;;33.08;16.70;;;;;;;0.01;100.00;100933.34;5073278;28;20051;-53
2021/12/03 07:07:35;;;;;;;34.95;16.65;;;;;;;-0.01;100.00;100934.88;5072454;28;20055;-54
2021/12/03 07:10:02;;;;;;;37.22;17.48;;;;;;;-0.04;99.92;100925.41;5073167;28;20059;-54
2021/12/03 07:12:28;;;;;;;31.70;15.83;;;;;;;-0.03;99.38;100918.69;5073146;28;20059;-54
2021/12/03 07:14:57;;;;;;;33.63;16.75;;;;;;;-0.06;99.73;100919.34;5072310;28;20412;-54
2021/12/03 07:17:22;;;;;;;32.90;17.42;;;;;;;-0.07;99.31;100915.03;5073018;28;20036;-54
2021/12/03 07:19:48;;;;;;;34.10;16.73;;;;;;;-0.06;99.96;100908.34;5073233;28;20029;-54
2021/12/03 07:22:13;;;;;;;34.22;15.52;;;;;;;-0.07;99.00;100909.97;5072180;28;20111;-54
2021/12/03 07:24:38;;;;;;;36.10;15.15;;;;;;;-0.07;98.57;100904.91;5072612;28;20052;-53
2021/12/03 07:27:05;;;;;;;35.33;16.63;;;;;;;-0.06;99.49;100908.34;5073092;28;20078;-52
2021/12/03 07:29:32;;;;;;;29.50;15.90;;;;;;;-0.06;99.12;100901.59;5072008;28;20033;-54
2021/12/03 07:32:00;;;;;;;36.67;16.65;;;;;;;-0.05;98.55;100894.91;5072657;28;20283;-53
2021/12/03 07:34:25;;;;;;;36.60;16.20;;;;;;;-0.06;98.64;100896.53;5072924;28;20418;-54
2021/12/03 07:36:50;;;;;;;36.13;15.52;;;;;;;-0.06;98.72;100899.06;5071926;28;20468;-53
2021/12/03 07:39:16;;;;;;;33.67;15.57;;;;;;;-0.04;98.91;100907.69;5072828;28;20028;-53
2021/12/03 07:41:41;;;;;;;37.63;14.50;;;;;;;-0.03;98.50;100901.84;5072463;28;20020;-53
2021/12/03 07:44:11;;;;;;;35.08;14.85;;;;;;;0.01;98.14;100905.47;5072006;28;20020;-53
2021/12/03 07:46:36;;;;;;;34.28;15.18;;;;;;;0.02;98.01;100903.81;5072421;28;20024;-53
2021/12/03 07:49:03;;;;;;;32.67;14.77;;;;;;;0.05;97.35;100914.16;5072710;28;20108;-53
2021/12/03 07:51:28;;;;;;;31.60;14.33;;;;;;;0.05;97.68;100899.84;5071836;28;20055;-53
2021/12/03 07:53:53;;;;;;;34.83;14.40;;;;;;;0.07;97.95;100902.50;5072675;28;20028;-49
2021/12/03 07:56:19;;;;;;;35.30;14.60;;;;;;;0.09;97.32;100906.00;5072019;28;20020;-53
2021/12/03 07:58:44;;;;;;;41.67;13.68;;;;;;;0.12;96.91;100906.25;5072319;28;20029;-53
2021/12/03 08:01:09;;;;;;;36.00;13.90;;;;;;;0.13;97.01;100903.84;5072476;28;20035;-53
2021/12/03 08:03:35;;;;;;;39.35;12.55;;;;;;;0.17;96.93;100910.00;5071709;28;20029;-52
2021/12/03 08:06:06;;;;;;;31.30;12.75;;;;;;;0.18;97.77;100906.69;5072727;28;20078;-54
2021/12/03 08:08:31;;;;;;;30.98;13.25;;;;;;;0.19;97.28;100908.44;5072610;28;20035;-53
2021/12/03 08:10:57;;;;;;;33.38;12.90;;;;;;;0.22;96.97;100898.53;5071626;28;20024;-53
2021/12/03 08:13:22;;;;;;;34.72;13.13;;;;;;;0.24;96.90;100896.97;5072535;28;20101;-52
2021/12/03 08:15:48;;;;;;;33.30;11.93;;;;;;;0.29;96.25;100898.19;5072143;28;20031;-51
2021/12/03 08:18:14;;;;;;;32.95;11.77;;;;;;;0.31;96.48;100899.19;5071826;28;20039;-53
2021/12/03 08:20:39;;;;;;;37.35;12.57;;;;;;;0.32;97.35;100885.75;5072170;28;20036;-53
2021/12/03 08:23:04;;;;;;;36.40;12.23;;;;;;;0.36;96.61;100896.09;5074027;28;20025;-52
2021/12/03 08:25:30;;;;;;;33.83;11.98;;;;;;;0.38;96.62;100890.38;5075460;28;20414;-53
2021/12/03 08:27:55;;;;;;;36.58;11.38;;;;;;;0.40;96.63;100893.00;5076170;28;20032;-53
2021/12/03 08:30:21;;;;;;;35.65;10.93;;;;;;;0.43;96.27;100898.31;5075940;28;20029;-53
2021/12/03 08:32:48;;;;;;;35.03;11.80;;;;;;;0.45;95.68;100892.59;5074961;28;20017;-53
2021/12/03 08:35:13;;;;;;;37.83;11.55;;;;;;;0.48;95.76;100891.91;5076102;28;20099;-53
2021/12/03 08:37:44;;;;;;;32.05;11.10;;;;;;;0.50;96.48;100887.81;5075722;28;20536;-54
2021/12/03 08:40:09;;;;;;;35.38;11.50;;;;;;;0.52;96.52;100883.75;5075244;28;20035;-52
2021/12/03 08:42:35;;;;;;;33.10;10.35;;;;;;;0.55;95.93;100891.56;5075493;28;20502;-53
2021/12/03 08:45:03;;;;;;;29.35;9.35;;;;;;;0.56;95.71;100890.78;5075724;28;20023;-54
2021/12/03 08:47:29;;;;;;;26.25;9.43;;;;;;;0.58;95.28;100889.25;5075096;28;20090;-53
2021/12/03 08:49:57;;;;;;;28.73;10.45;;;;;;;0.60;94.84;100892.78;5075613;28;20036;-52
2021/12/03 08:55:08;;;;;;;32.03;10.25;;;;;;;0.64;94.73;100874.44;5075948;28;20090;-54
2021/12/03 08:57:34;;;;;;;35.92;10.25;;;;;;;0.67;95.31;100877.97;5075158;28;20020;-52
2021/12/03 09:00:10;;;;;;;30.50;10.48;;;;;;;0.70;95.75;100875.66;5075145;28;20039;-50
2021/12/03 09:02:36;;;;;;;28.50;9.65;;;;;;;0.71;94.79;100874.88;5075651;28;20028;-51
2021/12/03 09:05:01;;;;;;;31.50;10.43;;;;;;;0.73;94.16;100868.28;5075711;28;20032;-52
2021/12/03 09:07:26;;;;;;;34.70;9.80;;;;;;;0.76;94.76;100873.53;5074778;28;20544;-53
2021/12/03 09:09:55;;;;;;;37.95;8.75;;;;;;;0.81;95.00;100880.72;5075281;28;20119;-52
2021/12/03 09:12:20;;;;;;;31.77;9.82;;;;;;;0.85;93.94;100886.00;5075706;28;20112;-52
2021/12/03 09:14:54;;;;;;;30.73;10.07;;;;;;;0.90;94.10;100879.59;5074617;28;20115;-52
2021/12/03 09:17:46;;;;;;;32.83;9.32;;;;;;;0.94;94.23;100874.84;5075524;28;20033;-52
2021/12/03 09:20:35;;;;;;;30.42;10.15;;;;;;;0.98;94.46;100865.75;5075350;28;20056;-51
2021/12/03 09:23:08;;;;;;;27.15;9.50;;;;;;;1.01;93.36;100860.00;5075258;28;20460;-53
2021/12/03 09:25:43;;;;;;;32.25;10.25;;;;;;;1.02;93.80;100846.53;5074950;28;20103;-53
2021/12/03 09:28:12;;;;;;;29.40;10.38;;;;;;;1.05;94.48;100846.78;5074567;28;20040;-52
2021/12/03 09:30:40;;;;;;;27.40;9.98;;;;;;;1.06;93.79;100844.31;5074745;28;20028;-49
2021/12/03 09:33:09;;;;;;;26.33;10.50;;;;;;;1.09;93.78;100848.72;5074764;28;20021;-53
2021/12/03 09:35:40;;;;;;;34.72;10.32;;;;;;;1.12;94.05;100864.16;5073154;28;20027;-53
2021/12/03 09:38:06;;;;;;;35.40;10.48;;;;;;;1.17;94.44;100856.88;5075196;28;20055;-53
2021/12/03 09:40:34;;;;;;;34.22;11.02;;;;;;;1.21;93.87;100859.69;5074828;28;20052;-54
2021/12/03 09:43:00;;;;;;;33.78;11.63;;;;;;;1.24;93.35;100859.03;5074269;28;20021;-53
2021/12/03 09:45:26;;;;;;;37.60;10.82;;;;;;;1.25;93.46;100843.91;5074627;28;20379;-52
2021/12/03 09:47:53;;;;;;;36.42;10.73;;;;;;;1.28;92.97;100839.03;5074874;28;20067;-52
2021/12/03 09:50:18;;;;;;;37.38;11.23;;;;;;;1.29;92.92;100837.34;5074128;28;20028;-53
2021/12/03 09:55:28;;;;;;;27.30;10.00;;;;;;;1.36;93.21;100828.50;5074766;28;20036;-53
2021/12/03 10:06:36;;;;;;;;;;;;;;;1.45;94.83;100807.13;5074731;28;20029;-53
2021/12/03 10:13:51;;;;;;;23.27;9.02;;;;;;;1.51;93.71;100810.84;5074224;28;20498;-54
2021/12/03 10:16:32;;;;;;;28.50;9.27;;;;;;;1.57;93.75;100801.09;5074435;28;20107;-54
2021/12/03 10:19:00;;;;;;;30.73;9.00;;;;;;;1.61;93.58;100801.41;5073230;28;20439;-54
2021/12/03 10:22:01;;;;;;;22.30;9.65;;;;;;;1.67;93.98;100802.59;5074228;28;20017;-56
2021/12/03 10:25:02;;;;;;;26.77;9.45;;;;;;;1.70;93.10;100792.59;5073002;28;20068;-53
2021/12/03 10:41:15;;;;;;;32.28;9.63;;;;;;;1.88;91.99;100745.47;5073812;28;20035;-53
2021/12/03 10:44:04;;;;;;;22.23;8.60;;;;;;;1.92;92.47;100739.81;5055509;28;20029;-53
2021/12/03 11:13:53;;;;;;;24.73;10.40;;;;;;;2.36;90.11;100699.22;5072926;28;20038;-53
2021/12/03 11:17:22;;;;;;;27.35;11.43;;;;;;;2.38;90.00;100684.97;5073072;28;20460;-53
2021/12/03 11:30:26;;;;;;;28.08;11.85;;;;;;;2.52;89.62;100640.88;5073191;28;20043;-53
2021/12/03 11:38:39;;;;;;;22.75;10.32;;;;;;;2.67;88.32;100625.59;5072891;28;20036;-54
2021/12/03 11:55:52;;;;;;;24.63;9.43;;;;;;;2.95;86.28;100617.00;5072659;28;20083;-54
2021/12/03 12:33:14;;;;;;;21.17;7.90;;;;;;;3.26;83.48;100521.94;5071790;28;20044;-54
2021/12/03 12:41:51;;;;;;;25.30;8.00;;;;;;;3.29;82.36;100522.97;5072587;28;20039;-54
2021/12/03 13:07:23;;;;;;;15.27;6.38;;;;;;;3.33;81.79;100497.66;5079668;28;20174;-51
2021/12/03 13:20:55;;;;;;;13.02;5.80;;;;;;;3.32;80.74;100478.97;5052355;28;20099;-54
2021/12/03 13:32:45;;;;;;;13.65;5.63;;;;;;;3.32;81.41;100466.22;5095020;28;20036;-53
2021/12/03 14:38:13;;;;;;;12.45;6.30;;;;;;;2.72;89.87;100419.75;5093511;28;20093;-53
2021/12/03 14:46:02;;;;;;;17.88;7.00;;;;;;;2.72;90.47;100412.13;5093020;28;20032;-53
2021/12/03 14:51:18;;;;;;;18.70;8.45;;;;;;;2.74;90.89;100420.72;5093998;28;20036;-54
2021/12/03 14:53:58;;;;;;;23.23;10.90;;;;;;;2.73;90.79;100429.13;5093653;28;20267;-54
2021/12/03 14:56:26;;;;;;;13.85;7.75;;;;;;;2.71;91.08;100429.06;5093921;28;20063;-53
2021/12/03 14:59:13;;;;;;;17.48;7.38;;;;;;;2.74;91.38;100419.03;5093021;28;20028;-53
2021/12/03 15:01:48;;;;;;;26.10;12.73;;;;;;;2.72;91.39;100422.28;5093635;28;20032;-55
2021/12/03 15:09:40;;;;;;;20.95;9.48;;;;;;;2.69;92.35;100428.09;5093447;28;20032;-52
2021/12/03 15:18:24;;;;;;;15.48;8.02;;;;;;;2.63;93.60;100428.66;5093535;28;20047;-53
2021/12/03 15:23:18;;;;;;;15.05;7.15;;;;;;;2.58;94.93;100422.44;5093350;28;20035;-53
2021/12/03 15:34:08;;;;;;;13.68;7.88;;;;;;;2.49;97.16;100400.69;5075818;28;20062;-53
2021/12/03 16:26:37;;;;;;;16.00;11.77;;;;;;;2.35;100.00;100347.41;5093062;28;20055;-53
2021/12/03 16:53:08;;;;;;;14.60;12.85;;;;;;;2.35;100.00;100333.78;5095551;28;20066;-54